Aérodrome :
LOGIN :

S'inscrire | Disclaimer

   EN    FR    IT 

 










Légende :    VFR   VFR Marginal   IFR   IFR Intensif   IFR Très Intensif
Visi : 
Plafond : 
>= 8 km
>= 3000ft
5 à 8 km
1000 à 3000 ft
1500m à 5 km
500 à 1000 ft
800 à 1500m
200 à 500 ft
< 800m
< 200 ft
Symboles :   Orages  Brouillard  Fortes neiges  Fortes précipitations  Vent > 20 kt
SIGMETs :   Divers  Orages  Givrage  Turbulence  Onde Orograph.  Cendres Volcan.







- Altitude de l'aérodrome : 1411 ft
- Code IATA : GVA


LSGG - Genève Cointrin

DERNIER METAR :
  • 170050Z AUTO 33002KT CAVOK 09/06 Q1019 NOSIG

METARs EXPIRÉS :
  • 170020Z AUTO VRB01KT CAVOK 09/07 Q1020 NOSIG
  • 162350Z AUTO VRB02KT CAVOK 09/06 Q1020 NOSIG
  • 162320Z AUTO VRB01KT CAVOK 10/07 Q1020 NOSIG
  • 162250Z AUTO VRB01KT CAVOK 10/07 Q1020 NOSIG
  • 162220Z AUTO VRB01KT CAVOK 10/07 Q1020 NOSIG
  • 162150Z AUTO VRB01KT CAVOK 10/07 Q1020 NOSIG

TAF TAF LSGG
Valide du 17 à 00h jusqu'au 18 à 06h UTC


162325Z 1700/1806 VRB03KT CAVOK TX22/1715Z TN08/1706Z TN09/1806Z
BECMG 1712/1715 05007KT
ATIS : +41 22 417 40 81
Pas de NOTAMs connus pour ce terrain.



MET'MAP, la Météo Aéronautique d'un coup d'oeil ! - Copyright ORBIFLY Décembre 2007 - Disclaimer

ORBIFLY MET'MAP TEAM :

Programmation & Développement : Alexandra Zaïnal
Conception & Développement : Baudouin d'Aumeries
Co-Programmation & Développement : Marc-Olivier Méhu
Soutien technique & logistique : Manuel Goepfert

Contact : metmap@orbifly.com




SOURCES & CREDITS :

   NOAA